Aviation Digital Data Service (ADDS)

Output produced by METARs form (1613 UTC 23 January 2019)
found at http://www.aviationweather.gov/metar/data/
 
METAR text: RCMQ 231600Z 35006KT 9999 FEW012 SCT060 11/07 Q1019 RMK A3010
Conditions at: RCMQ (WUCHIA OBSERVATO, TW) observed 1600 UTC 23 January 2019
Temperature: 11.0°C (52°F)
Dewpoint: 7.0°C (45°F) [RH = 76%]
Pressure (altimeter): 30.09 inches Hg (1019.0 mb)
Winds: from the N (350 degrees) at 7 MPH (6 knots; 3.1 m/s)
Visibility: 6 or more miles (10+ km)
Ceiling: at least 12,000 feet AGL
Clouds: few clouds at 1200 feet AGL
scattered clouds at 6000 feet AGL
Weather: no significant weather observed at this time

METAR text: RCMQ 231500Z 35002KT 9999 FEW012 SCT060 12/07 Q1019 RMK A3010
Conditions at: RCMQ (WUCHIA OBSERVATO, TW) observed 1500 UTC 23 January 2019
Temperature: 12.0°C (54°F)
Dewpoint: 7.0°C (45°F) [RH = 71%]
Pressure (altimeter): 30.09 inches Hg (1019.0 mb)
Winds: from the N (350 degrees) at 2 MPH (2 knots; 1.0 m/s)
Visibility: 6 or more miles (10+ km)
Ceiling: at least 12,000 feet AGL
Clouds: few clouds at 1200 feet AGL
scattered clouds at 6000 feet AGL
Weather: no significant weather observed at this time

METAR text: RCMQ 231400Z 01006KT 9999 FEW012 SCT060 12/08 Q1019 NOSIG RMK A3010
Conditions at: RCMQ (WUCHIA OBSERVATO, TW) observed 1400 UTC 23 January 2019
Temperature: 12.0°C (54°F)
Dewpoint: 8.0°C (46°F) [RH = 76%]
Pressure (altimeter): 30.09 inches Hg (1019.0 mb)
Winds: from the N (10 degrees) at 7 MPH (6 knots; 3.1 m/s)
Visibility: 6 or more miles (10+ km)
Ceiling: at least 12,000 feet AGL
Clouds: few clouds at 1200 feet AGL
scattered clouds at 6000 feet AGL
Weather: no significant weather observed at this time

METAR text: RCMQ 231330Z 35008KT 9999 FEW012 SCT060 13/08 Q1019 NOSIG RMK A3011
Conditions at: RCMQ (WUCHIA OBSERVATO, TW) observed 1330 UTC 23 January 2019
Temperature: 13.0°C (55°F)
Dewpoint: 8.0°C (46°F) [RH = 72%]
Pressure (altimeter): 30.09 inches Hg (1019.0 mb)
Winds: from the N (350 degrees) at 9 MPH (8 knots; 4.1 m/s)
Visibility: 6 or more miles (10+ km)
Ceiling: at least 12,000 feet AGL
Clouds: few clouds at 1200 feet AGL
scattered clouds at 6000 feet AGL
Weather: no significant weather observed at this time

METAR text: RCMQ 231300Z 36006KT 9999 FEW012 SCT060 12/07 Q1019 NOSIG RMK A3011
Conditions at: RCMQ (WUCHIA OBSERVATO, TW) observed 1300 UTC 23 January 2019
Temperature: 12.0°C (54°F)
Dewpoint: 7.0°C (45°F) [RH = 71%]
Pressure (altimeter): 30.09 inches Hg (1019.0 mb)
Winds: from the N (360 degrees) at 7 MPH (6 knots; 3.1 m/s)
Visibility: 6 or more miles (10+ km)
Ceiling: at least 12,000 feet AGL
Clouds: few clouds at 1200 feet AGL
scattered clouds at 6000 feet AGL
Weather: no significant weather observed at this time

METAR text: RCMQ 231230Z 01008KT 9999 FEW012 SCT060 14/08 Q1019 NOSIG RMK A3010
Conditions at: RCMQ (WUCHIA OBSERVATO, TW) observed 1230 UTC 23 January 2019
Temperature: 14.0°C (57°F)
Dewpoint: 8.0°C (46°F) [RH = 67%]
Pressure (altimeter): 30.09 inches Hg (1019.0 mb)
Winds: from the N (10 degrees) at 9 MPH (8 knots; 4.1 m/s)
Visibility: 6 or more miles (10+ km)
Ceiling: at least 12,000 feet AGL
Clouds: few clouds at 1200 feet AGL
scattered clouds at 6000 feet AGL
Weather: no significant weather observed at this time

METAR text: RCMQ 231200Z 02008KT 9999 FEW012 SCT060 15/08 Q1019 NOSIG RMK A3010
Conditions at: RCMQ (WUCHIA OBSERVATO, TW) observed 1200 UTC 23 January 2019
Temperature: 15.0°C (59°F)
Dewpoint: 8.0°C (46°F) [RH = 63%]
Pressure (altimeter): 30.09 inches Hg (1019.0 mb)
Winds: from the NNE (20 degrees) at 9 MPH (8 knots; 4.1 m/s)
Visibility: 6 or more miles (10+ km)
Ceiling: at least 12,000 feet AGL
Clouds: few clouds at 1200 feet AGL
scattered clouds at 6000 feet AGL
Weather: no significant weather observed at this time

METAR text: RCMQ 231130Z 01010KT 9999 FEW012 SCT060 15/08 Q1019 NOSIG RMK A3009
Conditions at: RCMQ (WUCHIA OBSERVATO, TW) observed 1130 UTC 23 January 2019
Temperature: 15.0°C (59°F)
Dewpoint: 8.0°C (46°F) [RH = 63%]
Pressure (altimeter): 30.09 inches Hg (1019.0 mb)
Winds: from the N (10 degrees) at 12 MPH (10 knots; 5.1 m/s)
Visibility: 6 or more miles (10+ km)
Ceiling: at least 12,000 feet AGL
Clouds: few clouds at 1200 feet AGL
scattered clouds at 6000 feet AGL
Weather: no significant weather observed at this time

METAR text: RCMQ 231100Z 36010KT 9999 FEW012 SCT060 15/09 Q1019 NOSIG RMK A3009
Conditions at: RCMQ (WUCHIA OBSERVATO, TW) observed 1100 UTC 23 January 2019
Temperature: 15.0°C (59°F)
Dewpoint: 9.0°C (48°F) [RH = 67%]
Pressure (altimeter): 30.09 inches Hg (1019.0 mb)
Winds: from the N (360 degrees) at 12 MPH (10 knots; 5.1 m/s)
Visibility: 6 or more miles (10+ km)
Ceiling: at least 12,000 feet AGL
Clouds: few clouds at 1200 feet AGL
scattered clouds at 6000 feet AGL
Weather: no significant weather observed at this time

METAR text: RCMQ 231030Z 36010KT 9999 FEW012 SCT060 15/09 Q1018 NOSIG RMK A3008
Conditions at: RCMQ (WUCHIA OBSERVATO, TW) observed 1030 UTC 23 January 2019
Temperature: 15.0°C (59°F)
Dewpoint: 9.0°C (48°F) [RH = 67%]
Pressure (altimeter): 30.06 inches Hg (1018.0 mb)
Winds: from the N (360 degrees) at 12 MPH (10 knots; 5.1 m/s)
Visibility: 6 or more miles (10+ km)
Ceiling: at least 12,000 feet AGL
Clouds: few clouds at 1200 feet AGL
scattered clouds at 6000 feet AGL
Weather: no significant weather observed at this time

METAR text: RCMQ 231000Z 36009KT 9999 FEW012 SCT060 15/09 Q1018 NOSIG RMK A3007
Conditions at: RCMQ (WUCHIA OBSERVATO, TW) observed 1000 UTC 23 January 2019
Temperature: 15.0°C (59°F)
Dewpoint: 9.0°C (48°F) [RH = 67%]
Pressure (altimeter): 30.06 inches Hg (1018.0 mb)
Winds: from the N (360 degrees) at 10 MPH (9 knots; 4.6 m/s)
Visibility: 6 or more miles (10+ km)
Ceiling: at least 12,000 feet AGL
Clouds: few clouds at 1200 feet AGL
scattered clouds at 6000 feet AGL
Weather: no significant weather observed at this time

METAR text: RCMQ 230930Z 35011KT 9999 FEW012 SCT060 16/11 Q1018 NOSIG RMK A3007
Conditions at: RCMQ (WUCHIA OBSERVATO, TW) observed 0930 UTC 23 January 2019
Temperature: 16.0°C (61°F)
Dewpoint: 11.0°C (52°F) [RH = 72%]
Pressure (altimeter): 30.06 inches Hg (1018.0 mb)
Winds: from the N (350 degrees) at 13 MPH (11 knots; 5.7 m/s)
Visibility: 6 or more miles (10+ km)
Ceiling: at least 12,000 feet AGL
Clouds: few clouds at 1200 feet AGL
scattered clouds at 6000 feet AGL
Weather: no significant weather observed at this time

METAR text: RCMQ 230900Z 35012KT 9999 FEW012 SCT060 17/10 Q1018 NOSIG RMK A3007
Conditions at: RCMQ (WUCHIA OBSERVATO, TW) observed 0900 UTC 23 January 2019
Temperature: 17.0°C (63°F)
Dewpoint: 10.0°C (50°F) [RH = 63%]
Pressure (altimeter): 30.06 inches Hg (1018.0 mb)
Winds: from the N (350 degrees) at 14 MPH (12 knots; 6.2 m/s)
Visibility: 6 or more miles (10+ km)
Ceiling: at least 12,000 feet AGL
Clouds: few clouds at 1200 feet AGL
scattered clouds at 6000 feet AGL
Weather: no significant weather observed at this time

METAR text: RCMQ 230830Z 35011KT 9999 FEW012 SCT060 19/11 Q1017 NOSIG RMK A3005
Conditions at: RCMQ (WUCHIA OBSERVATO, TW) observed 0830 UTC 23 January 2019
Temperature: 19.0°C (66°F)
Dewpoint: 11.0°C (52°F) [RH = 60%]
Pressure (altimeter): 30.03 inches Hg (1017.0 mb)
Winds: from the N (350 degrees) at 13 MPH (11 knots; 5.7 m/s)
Visibility: 6 or more miles (10+ km)
Ceiling: at least 12,000 feet AGL
Clouds: few clouds at 1200 feet AGL
scattered clouds at 6000 feet AGL
Weather: no significant weather observed at this time

METAR text: RCMQ 230800Z 36012KT 9999 FEW012 SCT060 19/10 Q1017 NOSIG RMK A3005
Conditions at: RCMQ (WUCHIA OBSERVATO, TW) observed 0800 UTC 23 January 2019
Temperature: 19.0°C (66°F)
Dewpoint: 10.0°C (50°F) [RH = 56%]
Pressure (altimeter): 30.03 inches Hg (1017.0 mb)
Winds: from the N (360 degrees) at 14 MPH (12 knots; 6.2 m/s)
Visibility: 6 or more miles (10+ km)
Ceiling: at least 12,000 feet AGL
Clouds: few clouds at 1200 feet AGL
scattered clouds at 6000 feet AGL
Weather: no significant weather observed at this time

METAR text: RCMQ 230730Z 35013KT 9999 FEW012 SCT060 20/10 Q1017 NOSIG RMK A3005
Conditions at: RCMQ (WUCHIA OBSERVATO, TW) observed 0730 UTC 23 January 2019
Temperature: 20.0°C (68°F)
Dewpoint: 10.0°C (50°F) [RH = 53%]
Pressure (altimeter): 30.03 inches Hg (1017.0 mb)
Winds: from the N (350 degrees) at 15 MPH (13 knots; 6.7 m/s)
Visibility: 6 or more miles (10+ km)
Ceiling: at least 12,000 feet AGL
Clouds: few clouds at 1200 feet AGL
scattered clouds at 6000 feet AGL
Weather: no significant weather observed at this time

METAR text: RCMQ 230700Z 36012KT 9999 FEW012 SCT060 20/10 Q1017 NOSIG RMK A3005
Conditions at: RCMQ (WUCHIA OBSERVATO, TW) observed 0700 UTC 23 January 2019
Temperature: 20.0°C (68°F)
Dewpoint: 10.0°C (50°F) [RH = 53%]
Pressure (altimeter): 30.03 inches Hg (1017.0 mb)
Winds: from the N (360 degrees) at 14 MPH (12 knots; 6.2 m/s)
Visibility: 6 or more miles (10+ km)
Ceiling: at least 12,000 feet AGL
Clouds: few clouds at 1200 feet AGL
scattered clouds at 6000 feet AGL
Weather: no significant weather observed at this time

METAR text: RCMQ 230630Z 35013KT 9999 FEW012 SCT060 21/10 Q1017 NOSIG RMK A3005
Conditions at: RCMQ (WUCHIA OBSERVATO, TW) observed 0630 UTC 23 January 2019
Temperature: 21.0°C (70°F)
Dewpoint: 10.0°C (50°F) [RH = 49%]
Pressure (altimeter): 30.03 inches Hg (1017.0 mb)
Winds: from the N (350 degrees) at 15 MPH (13 knots; 6.7 m/s)
Visibility: 6 or more miles (10+ km)
Ceiling: at least 12,000 feet AGL
Clouds: few clouds at 1200 feet AGL
scattered clouds at 6000 feet AGL
Weather: no significant weather observed at this time

METAR text: RCMQ 230600Z 36014KT 9999 FEW012 SCT060 20/10 Q1018 NOSIG RMK A3006
Conditions at: RCMQ (WUCHIA OBSERVATO, TW) observed 0600 UTC 23 January 2019
Temperature: 20.0°C (68°F)
Dewpoint: 10.0°C (50°F) [RH = 53%]
Pressure (altimeter): 30.06 inches Hg (1018.0 mb)
Winds: from the N (360 degrees) at 16 MPH (14 knots; 7.2 m/s)
Visibility: 6 or more miles (10+ km)
Ceiling: at least 12,000 feet AGL
Clouds: few clouds at 1200 feet AGL
scattered clouds at 6000 feet AGL
Weather: no significant weather observed at this time

METAR text: RCMQ 230530Z 36012KT 9999 FEW012 SCT060 20/09 Q1018 NOSIG RMK A3007
Conditions at: RCMQ (WUCHIA OBSERVATO, TW) observed 0530 UTC 23 January 2019
Temperature: 20.0°C (68°F)
Dewpoint: 9.0°C (48°F) [RH = 49%]
Pressure (altimeter): 30.06 inches Hg (1018.0 mb)
Winds: from the N (360 degrees) at 14 MPH (12 knots; 6.2 m/s)
Visibility: 6 or more miles (10+ km)
Ceiling: at least 12,000 feet AGL
Clouds: few clouds at 1200 feet AGL
scattered clouds at 6000 feet AGL
Weather: no significant weather observed at this time

METAR text: RCMQ 230500Z 36013KT 9999 FEW012 SCT060 20/09 Q1018 NOSIG RMK A3008
Conditions at: RCMQ (WUCHIA OBSERVATO, TW) observed 0500 UTC 23 January 2019
Temperature: 20.0°C (68°F)
Dewpoint: 9.0°C (48°F) [RH = 49%]
Pressure (altimeter): 30.06 inches Hg (1018.0 mb)
Winds: from the N (360 degrees) at 15 MPH (13 knots; 6.7 m/s)
Visibility: 6 or more miles (10+ km)
Ceiling: at least 12,000 feet AGL
Clouds: few clouds at 1200 feet AGL
scattered clouds at 6000 feet AGL
Weather: no significant weather observed at this time

METAR text: RCMQ 230430Z 35010KT 9999 FEW012 SCT060 20/09 Q1019 NOSIG RMK A3009
Conditions at: RCMQ (WUCHIA OBSERVATO, TW) observed 0430 UTC 23 January 2019
Temperature: 20.0°C (68°F)
Dewpoint: 9.0°C (48°F) [RH = 49%]
Pressure (altimeter): 30.09 inches Hg (1019.0 mb)
Winds: from the N (350 degrees) at 12 MPH (10 knots; 5.1 m/s)
Visibility: 6 or more miles (10+ km)
Ceiling: at least 12,000 feet AGL
Clouds: few clouds at 1200 feet AGL
scattered clouds at 6000 feet AGL
Weather: no significant weather observed at this time

METAR text: RCMQ 230400Z 36010KT 9999 FEW012 SCT060 20/08 Q1019 NOSIG RMK A3010
Conditions at: RCMQ (WUCHIA OBSERVATO, TW) observed 0400 UTC 23 January 2019
Temperature: 20.0°C (68°F)
Dewpoint: 8.0°C (46°F) [RH = 46%]
Pressure (altimeter): 30.09 inches Hg (1019.0 mb)
Winds: from the N (360 degrees) at 12 MPH (10 knots; 5.1 m/s)
Visibility: 6 or more miles (10+ km)
Ceiling: at least 12,000 feet AGL
Clouds: few clouds at 1200 feet AGL
scattered clouds at 6000 feet AGL
Weather: no significant weather observed at this time

METAR text: RCMQ 230330Z 35009KT 9999 FEW012 SCT060 20/08 Q1020 NOSIG RMK A3012
Conditions at: RCMQ (WUCHIA OBSERVATO, TW) observed 0330 UTC 23 January 2019
Temperature: 20.0°C (68°F)
Dewpoint: 8.0°C (46°F) [RH = 46%]
Pressure (altimeter): 30.12 inches Hg (1020.0 mb)
Winds: from the N (350 degrees) at 10 MPH (9 knots; 4.6 m/s)
Visibility: 6 or more miles (10+ km)
Ceiling: at least 12,000 feet AGL
Clouds: few clouds at 1200 feet AGL
scattered clouds at 6000 feet AGL
Weather: no significant weather observed at this time

METAR text: RCMQ 230300Z 35008KT 9999 FEW012 SCT060 19/07 Q1020 NOSIG RMK A3013
Conditions at: RCMQ (WUCHIA OBSERVATO, TW) observed 0300 UTC 23 January 2019
Temperature: 19.0°C (66°F)
Dewpoint: 7.0°C (45°F) [RH = 46%]
Pressure (altimeter): 30.12 inches Hg (1020.0 mb)
Winds: from the N (350 degrees) at 9 MPH (8 knots; 4.1 m/s)
Visibility: 6 or more miles (10+ km)
Ceiling: at least 12,000 feet AGL
Clouds: few clouds at 1200 feet AGL
scattered clouds at 6000 feet AGL
Weather: no significant weather observed at this time

METAR text: RCMQ 230230Z 36006KT 9999 FEW012 SCT100 18/07 Q1020 NOSIG RMK A3013
Conditions at: RCMQ (WUCHIA OBSERVATO, TW) observed 0230 UTC 23 January 2019
Temperature: 18.0°C (64°F)
Dewpoint: 7.0°C (45°F) [RH = 49%]
Pressure (altimeter): 30.12 inches Hg (1020.0 mb)
Winds: from the N (360 degrees) at 7 MPH (6 knots; 3.1 m/s)
Visibility: 6 or more miles (10+ km)
Ceiling: at least 12,000 feet AGL
Clouds: few clouds at 1200 feet AGL
scattered clouds at 10000 feet AGL
Weather: no significant weather observed at this time

METAR text: RCMQ 230200Z 01005KT 9999 FEW012 SCT100 17/07 Q1020 NOSIG RMK A3013
Conditions at: RCMQ (WUCHIA OBSERVATO, TW) observed 0200 UTC 23 January 2019
Temperature: 17.0°C (63°F)
Dewpoint: 7.0°C (45°F) [RH = 52%]
Pressure (altimeter): 30.12 inches Hg (1020.0 mb)
Winds: from the N (10 degrees) at 6 MPH (5 knots; 2.6 m/s)
Visibility: 6 or more miles (10+ km)
Ceiling: at least 12,000 feet AGL
Clouds: few clouds at 1200 feet AGL
scattered clouds at 10000 feet AGL
Weather: no significant weather observed at this time

METAR text: RCMQ 230130Z 36005KT 9999 FEW012 SCT100 16/07 Q1020 NOSIG RMK A3014
Conditions at: RCMQ (WUCHIA OBSERVATO, TW) observed 0130 UTC 23 January 2019
Temperature: 16.0°C (61°F)
Dewpoint: 7.0°C (45°F) [RH = 55%]
Pressure (altimeter): 30.12 inches Hg (1020.0 mb)
Winds: from the N (360 degrees) at 6 MPH (5 knots; 2.6 m/s)
Visibility: 6 or more miles (10+ km)
Ceiling: at least 12,000 feet AGL
Clouds: few clouds at 1200 feet AGL
scattered clouds at 10000 feet AGL
Weather: no significant weather observed at this time

METAR text: RCMQ 230100Z 02005KT 9999 FEW012 SCT100 15/07 Q1020 NOSIG RMK A3013
Conditions at: RCMQ (WUCHIA OBSERVATO, TW) observed 0100 UTC 23 January 2019
Temperature: 15.0°C (59°F)
Dewpoint: 7.0°C (45°F) [RH = 59%]
Pressure (altimeter): 30.12 inches Hg (1020.0 mb)
Winds: from the NNE (20 degrees) at 6 MPH (5 knots; 2.6 m/s)
Visibility: 6 or more miles (10+ km)
Ceiling: at least 12,000 feet AGL
Clouds: few clouds at 1200 feet AGL
scattered clouds at 10000 feet AGL
Weather: no significant weather observed at this time

METAR text: RCMQ 230030Z 02007KT 9999 FEW012 SCT100 13/06 Q1020 NOSIG RMK A3012
Conditions at: RCMQ (WUCHIA OBSERVATO, TW) observed 0030 UTC 23 January 2019
Temperature: 13.0°C (55°F)
Dewpoint: 6.0°C (43°F) [RH = 62%]
Pressure (altimeter): 30.12 inches Hg (1020.0 mb)
Winds: from the NNE (20 degrees) at 8 MPH (7 knots; 3.6 m/s)
Visibility: 6 or more miles (10+ km)
Ceiling: at least 12,000 feet AGL
Clouds: few clouds at 1200 feet AGL
scattered clouds at 10000 feet AGL
Weather: no significant weather observed at this time

METAR text: RCMQ 230000Z 02006KT 9999 FEW012 SCT100 12/06 Q1020 NOSIG RMK A3012
Conditions at: RCMQ (WUCHIA OBSERVATO, TW) observed 0000 UTC 23 January 2019
Temperature: 12.0°C (54°F)
Dewpoint: 6.0°C (43°F) [RH = 67%]
Pressure (altimeter): 30.12 inches Hg (1020.0 mb)
Winds: from the NNE (20 degrees) at 7 MPH (6 knots; 3.1 m/s)
Visibility: 6 or more miles (10+ km)
Ceiling: at least 12,000 feet AGL
Clouds: few clouds at 1200 feet AGL
scattered clouds at 10000 feet AGL
Weather: no significant weather observed at this time

METAR text: RCMQ 222330Z 03006KT 9999 FEW012 SCT060 11/06 Q1019 NOSIG RMK A3010
Conditions at: RCMQ (WUCHIA OBSERVATO, TW) observed 2330 UTC 22 January 2019
Temperature: 11.0°C (52°F)
Dewpoint: 6.0°C (43°F) [RH = 71%]
Pressure (altimeter): 30.09 inches Hg (1019.0 mb)
Winds: from the NNE (30 degrees) at 7 MPH (6 knots; 3.1 m/s)
Visibility: 6 or more miles (10+ km)
Ceiling: at least 12,000 feet AGL
Clouds: few clouds at 1200 feet AGL
scattered clouds at 6000 feet AGL
Weather: no significant weather observed at this time

METAR text: RCMQ 222300Z 02007KT 9999 FEW012 SCT060 10/06 Q1018 NOSIG RMK A3007
Conditions at: RCMQ (WUCHIA OBSERVATO, TW) observed 2300 UTC 22 January 2019
Temperature: 10.0°C (50°F)
Dewpoint: 6.0°C (43°F) [RH = 76%]
Pressure (altimeter): 30.06 inches Hg (1018.0 mb)
Winds: from the NNE (20 degrees) at 8 MPH (7 knots; 3.6 m/s)
Visibility: 6 or more miles (10+ km)
Ceiling: at least 12,000 feet AGL
Clouds: few clouds at 1200 feet AGL
scattered clouds at 6000 feet AGL
Weather: no significant weather observed at this time

METAR text: RCMQ 222230Z 02007KT 9999 FEW012 SCT060 10/06 Q1018 NOSIG RMK A3007
Conditions at: RCMQ (WUCHIA OBSERVATO, TW) observed 2230 UTC 22 January 2019
Temperature: 10.0°C (50°F)
Dewpoint: 6.0°C (43°F) [RH = 76%]
Pressure (altimeter): 30.06 inches Hg (1018.0 mb)
Winds: from the NNE (20 degrees) at 8 MPH (7 knots; 3.6 m/s)
Visibility: 6 or more miles (10+ km)
Ceiling: at least 12,000 feet AGL
Clouds: few clouds at 1200 feet AGL
scattered clouds at 6000 feet AGL
Weather: no significant weather observed at this time

METAR text: RCMQ 222200Z 01008KT 9999 FEW012 09/05 Q1018 NOSIG RMK A3007
Conditions at: RCMQ (WUCHIA OBSERVATO, TW) observed 2200 UTC 22 January 2019
Temperature: 9.0°C (48°F)
Dewpoint: 5.0°C (41°F) [RH = 76%]
Pressure (altimeter): 30.06 inches Hg (1018.0 mb)
Winds: from the N (10 degrees) at 9 MPH (8 knots; 4.1 m/s)
Visibility: 6 or more miles (10+ km)
Ceiling: at least 12,000 feet AGL
Clouds: few clouds at 1200 feet AGL
Weather: no significant weather observed at this time

METAR text: RCMQ 222130Z 02006KT 9999 FEW012 09/05 Q1018 NOSIG RMK A3007
Conditions at: RCMQ (WUCHIA OBSERVATO, TW) observed 2130 UTC 22 January 2019
Temperature: 9.0°C (48°F)
Dewpoint: 5.0°C (41°F) [RH = 76%]
Pressure (altimeter): 30.06 inches Hg (1018.0 mb)
Winds: from the NNE (20 degrees) at 7 MPH (6 knots; 3.1 m/s)
Visibility: 6 or more miles (10+ km)
Ceiling: at least 12,000 feet AGL
Clouds: few clouds at 1200 feet AGL
Weather: no significant weather observed at this time

METAR text: RCMQ 222100Z 03006KT 9999 FEW012 10/06 Q1018 NOSIG RMK A3007
Conditions at: RCMQ (WUCHIA OBSERVATO, TW) observed 2100 UTC 22 January 2019
Temperature: 10.0°C (50°F)
Dewpoint: 6.0°C (43°F) [RH = 76%]
Pressure (altimeter): 30.06 inches Hg (1018.0 mb)
Winds: from the NNE (30 degrees) at 7 MPH (6 knots; 3.1 m/s)
Visibility: 6 or more miles (10+ km)
Ceiling: at least 12,000 feet AGL
Clouds: few clouds at 1200 feet AGL
Weather: no significant weather observed at this time

METAR text: RCMQ 222030Z 02006KT 9999 FEW012 10/06 Q1018 RMK A3007
Conditions at: RCMQ (WUCHIA OBSERVATO, TW) observed 2030 UTC 22 January 2019
Temperature: 10.0°C (50°F)
Dewpoint: 6.0°C (43°F) [RH = 76%]
Pressure (altimeter): 30.06 inches Hg (1018.0 mb)
Winds: from the NNE (20 degrees) at 7 MPH (6 knots; 3.1 m/s)
Visibility: 6 or more miles (10+ km)
Ceiling: at least 12,000 feet AGL
Clouds: few clouds at 1200 feet AGL
Weather: no significant weather observed at this time

METAR text: RCMQ 222000Z 02007KT 9999 FEW012 10/05 Q1018 RMK A3007
Conditions at: RCMQ (WUCHIA OBSERVATO, TW) observed 2000 UTC 22 January 2019
Temperature: 10.0°C (50°F)
Dewpoint: 5.0°C (41°F) [RH = 71%]
Pressure (altimeter): 30.06 inches Hg (1018.0 mb)
Winds: from the NNE (20 degrees) at 8 MPH (7 knots; 3.6 m/s)
Visibility: 6 or more miles (10+ km)
Ceiling: at least 12,000 feet AGL
Clouds: few clouds at 1200 feet AGL
Weather: no significant weather observed at this time

METAR text: RCMQ 221900Z 03007KT 9999 FEW012 10/05 Q1018 RMK A3007
Conditions at: RCMQ (WUCHIA OBSERVATO, TW) observed 1900 UTC 22 January 2019
Temperature: 10.0°C (50°F)
Dewpoint: 5.0°C (41°F) [RH = 71%]
Pressure (altimeter): 30.06 inches Hg (1018.0 mb)
Winds: from the NNE (30 degrees) at 8 MPH (7 knots; 3.6 m/s)
Visibility: 6 or more miles (10+ km)
Ceiling: at least 12,000 feet AGL
Clouds: few clouds at 1200 feet AGL
Weather: no significant weather observed at this time

METAR text: RCMQ 221800Z 03008KT 9999 FEW012 11/05 Q1018 RMK A3008
Conditions at: RCMQ (WUCHIA OBSERVATO, TW) observed 1800 UTC 22 January 2019
Temperature: 11.0°C (52°F)
Dewpoint: 5.0°C (41°F) [RH = 66%]
Pressure (altimeter): 30.06 inches Hg (1018.0 mb)
Winds: from the NNE (30 degrees) at 9 MPH (8 knots; 4.1 m/s)
Visibility: 6 or more miles (10+ km)
Ceiling: at least 12,000 feet AGL
Clouds: few clouds at 1200 feet AGL
Weather: no significant weather observed at this time

METAR text: RCMQ 221700Z 03009KT 9999 FEW012 11/05 Q1019 RMK A3009
Conditions at: RCMQ (WUCHIA OBSERVATO, TW) observed 1700 UTC 22 January 2019
Temperature: 11.0°C (52°F)
Dewpoint: 5.0°C (41°F) [RH = 66%]
Pressure (altimeter): 30.09 inches Hg (1019.0 mb)
Winds: from the NNE (30 degrees) at 10 MPH (9 knots; 4.6 m/s)
Visibility: 6 or more miles (10+ km)
Ceiling: at least 12,000 feet AGL
Clouds: few clouds at 1200 feet AGL
Weather: no significant weather observed at this time

METAR text: RCMQ 221600Z 03008KT 9999 FEW012 11/05 Q1019 RMK A3009
Conditions at: RCMQ (WUCHIA OBSERVATO, TW) observed 1600 UTC 22 January 2019
Temperature: 11.0°C (52°F)
Dewpoint: 5.0°C (41°F) [RH = 66%]
Pressure (altimeter): 30.09 inches Hg (1019.0 mb)
Winds: from the NNE (30 degrees) at 9 MPH (8 knots; 4.1 m/s)
Visibility: 6 or more miles (10+ km)
Ceiling: at least 12,000 feet AGL
Clouds: few clouds at 1200 feet AGL
Weather: no significant weather observed at this time

METAR text: RCMQ 221500Z 03012KT 9999 FEW012 11/05 Q1019 RMK A3009
Conditions at: RCMQ (WUCHIA OBSERVATO, TW) observed 1500 UTC 22 January 2019
Temperature: 11.0°C (52°F)
Dewpoint: 5.0°C (41°F) [RH = 66%]
Pressure (altimeter): 30.09 inches Hg (1019.0 mb)
Winds: from the NNE (30 degrees) at 14 MPH (12 knots; 6.2 m/s)
Visibility: 6 or more miles (10+ km)
Ceiling: at least 12,000 feet AGL
Clouds: few clouds at 1200 feet AGL
Weather: no significant weather observed at this time

METAR text: RCMQ 221400Z 02015KT 9999 FEW010 SCT060 11/05 Q1019 NOSIG RMK A3010
Conditions at: RCMQ (WUCHIA OBSERVATO, TW) observed 1400 UTC 22 January 2019
Temperature: 11.0°C (52°F)
Dewpoint: 5.0°C (41°F) [RH = 66%]
Pressure (altimeter): 30.09 inches Hg (1019.0 mb)
Winds: from the NNE (20 degrees) at 17 MPH (15 knots; 7.7 m/s)
Visibility: 6 or more miles (10+ km)
Ceiling: at least 12,000 feet AGL
Clouds: few clouds at 1000 feet AGL
scattered clouds at 6000 feet AGL
Weather: no significant weather observed at this time

METAR text: RCMQ 221330Z 01016KT 9999 FEW010 SCT060 12/04 Q1019 NOSIG RMK A3010
Conditions at: RCMQ (WUCHIA OBSERVATO, TW) observed 1330 UTC 22 January 2019
Temperature: 12.0°C (54°F)
Dewpoint: 4.0°C (39°F) [RH = 58%]
Pressure (altimeter): 30.09 inches Hg (1019.0 mb)
Winds: from the N (10 degrees) at 18 MPH (16 knots; 8.2 m/s)
Visibility: 6 or more miles (10+ km)
Ceiling: at least 12,000 feet AGL
Clouds: few clouds at 1000 feet AGL
scattered clouds at 6000 feet AGL
Weather: no significant weather observed at this time

METAR text: RCMQ 221300Z 02016KT 9999 FEW010 SCT060 12/05 Q1019 NOSIG RMK A3010
Conditions at: RCMQ (WUCHIA OBSERVATO, TW) observed 1300 UTC 22 January 2019
Temperature: 12.0°C (54°F)
Dewpoint: 5.0°C (41°F) [RH = 62%]
Pressure (altimeter): 30.09 inches Hg (1019.0 mb)
Winds: from the NNE (20 degrees) at 18 MPH (16 knots; 8.2 m/s)
Visibility: 6 or more miles (10+ km)
Ceiling: at least 12,000 feet AGL
Clouds: few clouds at 1000 feet AGL
scattered clouds at 6000 feet AGL
Weather: no significant weather observed at this time

METAR text: RCMQ 221230Z 02015G25KT 9999 FEW010 SCT060 12/05 Q1019 NOSIG RMK A3010
Conditions at: RCMQ (WUCHIA OBSERVATO, TW) observed 1230 UTC 22 January 2019
Temperature: 12.0°C (54°F)
Dewpoint: 5.0°C (41°F) [RH = 62%]
Pressure (altimeter): 30.09 inches Hg (1019.0 mb)
Winds: from the NNE (20 degrees) at 17 MPH (15 knots; 7.7 m/s)
gusting to 29 MPH (25 knots; 12.9 m/s)
Visibility: 6 or more miles (10+ km)
Ceiling: at least 12,000 feet AGL
Clouds: few clouds at 1000 feet AGL
scattered clouds at 6000 feet AGL
Weather: no significant weather observed at this time

METAR text: RCMQ 221200Z 02012G22KT 9999 FEW010 SCT060 12/05 Q1019 NOSIG RMK A3011
Conditions at: RCMQ (WUCHIA OBSERVATO, TW) observed 1200 UTC 22 January 2019
Temperature: 12.0°C (54°F)
Dewpoint: 5.0°C (41°F) [RH = 62%]
Pressure (altimeter): 30.09 inches Hg (1019.0 mb)
Winds: from the NNE (20 degrees) at 14 MPH (12 knots; 6.2 m/s)
gusting to 25 MPH (22 knots; 11.3 m/s)
Visibility: 6 or more miles (10+ km)
Ceiling: at least 12,000 feet AGL
Clouds: few clouds at 1000 feet AGL
scattered clouds at 6000 feet AGL
Weather: no significant weather observed at this time

METAR text: RCMQ 221130Z 02013G23KT 9999 FEW010 SCT060 12/05 Q1019 NOSIG RMK A3011
Conditions at: RCMQ (WUCHIA OBSERVATO, TW) observed 1130 UTC 22 January 2019
Temperature: 12.0°C (54°F)
Dewpoint: 5.0°C (41°F) [RH = 62%]
Pressure (altimeter): 30.09 inches Hg (1019.0 mb)
Winds: from the NNE (20 degrees) at 15 MPH (13 knots; 6.7 m/s)
gusting to 26 MPH (23 knots; 11.8 m/s)
Visibility: 6 or more miles (10+ km)
Ceiling: at least 12,000 feet AGL
Clouds: few clouds at 1000 feet AGL
scattered clouds at 6000 feet AGL
Weather: no significant weather observed at this time

METAR text: RCMQ 221100Z 02012G22KT 9999 FEW010 SCT060 12/05 Q1019 NOSIG RMK A3011
Conditions at: RCMQ (WUCHIA OBSERVATO, TW) observed 1100 UTC 22 January 2019
Temperature: 12.0°C (54°F)
Dewpoint: 5.0°C (41°F) [RH = 62%]
Pressure (altimeter): 30.09 inches Hg (1019.0 mb)
Winds: from the NNE (20 degrees) at 14 MPH (12 knots; 6.2 m/s)
gusting to 25 MPH (22 knots; 11.3 m/s)
Visibility: 6 or more miles (10+ km)
Ceiling: at least 12,000 feet AGL
Clouds: few clouds at 1000 feet AGL
scattered clouds at 6000 feet AGL
Weather: no significant weather observed at this time

METAR text: RCMQ 221030Z 02011G21KT 9999 FEW010 SCT060 12/06 Q1019 NOSIG RMK A3010
Conditions at: RCMQ (WUCHIA OBSERVATO, TW) observed 1030 UTC 22 January 2019
Temperature: 12.0°C (54°F)
Dewpoint: 6.0°C (43°F) [RH = 67%]
Pressure (altimeter): 30.09 inches Hg (1019.0 mb)
Winds: from the NNE (20 degrees) at 13 MPH (11 knots; 5.7 m/s)
gusting to 24 MPH (21 knots; 10.8 m/s)
Visibility: 6 or more miles (10+ km)
Ceiling: at least 12,000 feet AGL
Clouds: few clouds at 1000 feet AGL
scattered clouds at 6000 feet AGL
Weather: no significant weather observed at this time

METAR text: RCMQ 221000Z 02012G22KT 9999 FEW010 SCT060 12/06 Q1019 NOSIG RMK A3010
Conditions at: RCMQ (WUCHIA OBSERVATO, TW) observed 1000 UTC 22 January 2019
Temperature: 12.0°C (54°F)
Dewpoint: 6.0°C (43°F) [RH = 67%]
Pressure (altimeter): 30.09 inches Hg (1019.0 mb)
Winds: from the NNE (20 degrees) at 14 MPH (12 knots; 6.2 m/s)
gusting to 25 MPH (22 knots; 11.3 m/s)
Visibility: 6 or more miles (10+ km)
Ceiling: at least 12,000 feet AGL
Clouds: few clouds at 1000 feet AGL
scattered clouds at 6000 feet AGL
Weather: no significant weather observed at this time

METAR text: RCMQ 220930Z 02012G24KT 9999 FEW010 SCT040 13/06 Q1019 NOSIG RMK A3010
Conditions at: RCMQ (WUCHIA OBSERVATO, TW) observed 0930 UTC 22 January 2019
Temperature: 13.0°C (55°F)
Dewpoint: 6.0°C (43°F) [RH = 62%]
Pressure (altimeter): 30.09 inches Hg (1019.0 mb)
Winds: from the NNE (20 degrees) at 14 MPH (12 knots; 6.2 m/s)
gusting to 28 MPH (24 knots; 12.3 m/s)
Visibility: 6 or more miles (10+ km)
Ceiling: at least 12,000 feet AGL
Clouds: few clouds at 1000 feet AGL
scattered clouds at 4000 feet AGL
Weather: no significant weather observed at this time

METAR text: RCMQ 220900Z 02014G24KT 9999 FEW010 SCT040 14/06 Q1019 NOSIG RMK A3010
Conditions at: RCMQ (WUCHIA OBSERVATO, TW) observed 0900 UTC 22 January 2019
Temperature: 14.0°C (57°F)
Dewpoint: 6.0°C (43°F) [RH = 58%]
Pressure (altimeter): 30.09 inches Hg (1019.0 mb)
Winds: from the NNE (20 degrees) at 16 MPH (14 knots; 7.2 m/s)
gusting to 28 MPH (24 knots; 12.3 m/s)
Visibility: 6 or more miles (10+ km)
Ceiling: at least 12,000 feet AGL
Clouds: few clouds at 1000 feet AGL
scattered clouds at 4000 feet AGL
Weather: no significant weather observed at this time

METAR text: RCMQ 220830Z 02013G23KT 9999 FEW010 SCT040 15/06 Q1019 NOSIG RMK A3009
Conditions at: RCMQ (WUCHIA OBSERVATO, TW) observed 0830 UTC 22 January 2019
Temperature: 15.0°C (59°F)
Dewpoint: 6.0°C (43°F) [RH = 55%]
Pressure (altimeter): 30.09 inches Hg (1019.0 mb)
Winds: from the NNE (20 degrees) at 15 MPH (13 knots; 6.7 m/s)
gusting to 26 MPH (23 knots; 11.8 m/s)
Visibility: 6 or more miles (10+ km)
Ceiling: at least 12,000 feet AGL
Clouds: few clouds at 1000 feet AGL
scattered clouds at 4000 feet AGL
Weather: no significant weather observed at this time

METAR text: RCMQ 220800Z 02018G28KT 9999 FEW010 SCT040 15/06 Q1019 NOSIG RMK A3009
Conditions at: RCMQ (WUCHIA OBSERVATO, TW) observed 0800 UTC 22 January 2019
Temperature: 15.0°C (59°F)
Dewpoint: 6.0°C (43°F) [RH = 55%]
Pressure (altimeter): 30.09 inches Hg (1019.0 mb)
Winds: from the NNE (20 degrees) at 21 MPH (18 knots; 9.3 m/s)
gusting to 32 MPH (28 knots; 14.4 m/s)
Visibility: 6 or more miles (10+ km)
Ceiling: at least 12,000 feet AGL
Clouds: few clouds at 1000 feet AGL
scattered clouds at 4000 feet AGL
Weather: no significant weather observed at this time

METAR text: RCMQ 220730Z 02016G26KT 9999 FEW010 SCT020 BKN040 15/06 Q1019 NOSIG RMK A3009
Conditions at: RCMQ (WUCHIA OBSERVATO, TW) observed 0730 UTC 22 January 2019
Temperature: 15.0°C (59°F)
Dewpoint: 6.0°C (43°F) [RH = 55%]
Pressure (altimeter): 30.09 inches Hg (1019.0 mb)
Winds: from the NNE (20 degrees) at 18 MPH (16 knots; 8.2 m/s)
gusting to 30 MPH (26 knots; 13.4 m/s)
Visibility: 6 or more miles (10+ km)
Ceiling: 4000 feet AGL
Clouds: few clouds at 1000 feet AGL
scattered clouds at 2000 feet AGL
broken clouds at 4000 feet AGL
Weather: no significant weather observed at this time

METAR text: RCMQ 220700Z 02016G26KT 9999 FEW010 SCT020 BKN040 15/05 Q1019 NOSIG RMK A3009
Conditions at: RCMQ (WUCHIA OBSERVATO, TW) observed 0700 UTC 22 January 2019
Temperature: 15.0°C (59°F)
Dewpoint: 5.0°C (41°F) [RH = 51%]
Pressure (altimeter): 30.09 inches Hg (1019.0 mb)
Winds: from the NNE (20 degrees) at 18 MPH (16 knots; 8.2 m/s)
gusting to 30 MPH (26 knots; 13.4 m/s)
Visibility: 6 or more miles (10+ km)
Ceiling: 4000 feet AGL
Clouds: few clouds at 1000 feet AGL
scattered clouds at 2000 feet AGL
broken clouds at 4000 feet AGL
Weather: no significant weather observed at this time

METAR text: RCMQ 220630Z 02017G27KT 9999 FEW010 SCT020 BKN040 15/05 Q1019 NOSIG RMK A3009
Conditions at: RCMQ (WUCHIA OBSERVATO, TW) observed 0630 UTC 22 January 2019
Temperature: 15.0°C (59°F)
Dewpoint: 5.0°C (41°F) [RH = 51%]
Pressure (altimeter): 30.09 inches Hg (1019.0 mb)
Winds: from the NNE (20 degrees) at 20 MPH (17 knots; 8.7 m/s)
gusting to 31 MPH (27 knots; 13.9 m/s)
Visibility: 6 or more miles (10+ km)
Ceiling: 4000 feet AGL
Clouds: few clouds at 1000 feet AGL
scattered clouds at 2000 feet AGL
broken clouds at 4000 feet AGL
Weather: no significant weather observed at this time

METAR text: RCMQ 220600Z 02019G29KT 9999 FEW010 SCT020 BKN040 16/06 Q1019 NOSIG RMK A3009
Conditions at: RCMQ (WUCHIA OBSERVATO, TW) observed 0600 UTC 22 January 2019
Temperature: 16.0°C (61°F)
Dewpoint: 6.0°C (43°F) [RH = 51%]
Pressure (altimeter): 30.09 inches Hg (1019.0 mb)
Winds: from the NNE (20 degrees) at 22 MPH (19 knots; 9.8 m/s)
gusting to 33 MPH (29 knots; 14.9 m/s)
Visibility: 6 or more miles (10+ km)
Ceiling: 4000 feet AGL
Clouds: few clouds at 1000 feet AGL
scattered clouds at 2000 feet AGL
broken clouds at 4000 feet AGL
Weather: no significant weather observed at this time

METAR text: RCMQ 220530Z 02020G30KT 9999 FEW010 SCT020 BKN040 16/06 Q1019 NOSIG RMK A3010
Conditions at: RCMQ (WUCHIA OBSERVATO, TW) observed 0530 UTC 22 January 2019
Temperature: 16.0°C (61°F)
Dewpoint: 6.0°C (43°F) [RH = 51%]
Pressure (altimeter): 30.09 inches Hg (1019.0 mb)
Winds: from the NNE (20 degrees) at 23 MPH (20 knots; 10.3 m/s)
gusting to 34 MPH (30 knots; 15.4 m/s)
Visibility: 6 or more miles (10+ km)
Ceiling: 4000 feet AGL
Clouds: few clouds at 1000 feet AGL
scattered clouds at 2000 feet AGL
broken clouds at 4000 feet AGL
Weather: no significant weather observed at this time

METAR text: RCMQ 220500Z 03016G27KT 9999 FEW010 SCT020 BKN040 15/06 Q1019 NOSIG RMK A3011
Conditions at: RCMQ (WUCHIA OBSERVATO, TW) observed 0500 UTC 22 January 2019
Temperature: 15.0°C (59°F)
Dewpoint: 6.0°C (43°F) [RH = 55%]
Pressure (altimeter): 30.09 inches Hg (1019.0 mb)
Winds: from the NNE (30 degrees) at 18 MPH (16 knots; 8.2 m/s)
gusting to 31 MPH (27 knots; 13.9 m/s)
Visibility: 6 or more miles (10+ km)
Ceiling: 4000 feet AGL
Clouds: few clouds at 1000 feet AGL
scattered clouds at 2000 feet AGL
broken clouds at 4000 feet AGL
Weather: no significant weather observed at this time

METAR text: RCMQ 220430Z 02019G29KT 9999 FEW010 SCT020 BKN040 16/07 Q1020 NOSIG RMK A3013
Conditions at: RCMQ (WUCHIA OBSERVATO, TW) observed 0430 UTC 22 January 2019
Temperature: 16.0°C (61°F)
Dewpoint: 7.0°C (45°F) [RH = 55%]
Pressure (altimeter): 30.12 inches Hg (1020.0 mb)
Winds: from the NNE (20 degrees) at 22 MPH (19 knots; 9.8 m/s)
gusting to 33 MPH (29 knots; 14.9 m/s)
Visibility: 6 or more miles (10+ km)
Ceiling: 4000 feet AGL
Clouds: few clouds at 1000 feet AGL
scattered clouds at 2000 feet AGL
broken clouds at 4000 feet AGL
Weather: no significant weather observed at this time

Forecast for: RCMQ (WUCHIA OBSERVATO, TW)
Text: TAF RCMQ 231100Z 2312/2412 01010KT 9999 FEW012 SCT060 TX20/2406Z TN11/2320Z
Forecast period: 1200 to 1300 UTC 23 January 2019
Forecast type: FROM: standard forecast or significant change
Winds: from the N (10 degrees) at 12 MPH (10 knots; 5.1 m/s)
Visibility: 6 or more miles 10+ km)
Ceiling: at least 12,000 feet AGL
Clouds: few clouds at 1200 feet AGL
scattered clouds at 6000 feet AGL
Weather: no significant weather forecast for this period
Text: BECMG 2313/2316 01004KT
Forecast period: 1300 UTC 23 January 2019 to 0100 UTC 24 January 2019
Forecast type: BECOMING: Conditions expected to become as follows by 1600 UTC 23 January 2019
Winds: from the N (10 degrees) at 5 MPH (4 knots; 2.1 m/s)
Visibility: 6 or more miles 10+ km)
Ceiling: at least 12,000 feet AGL
Clouds: few clouds at 1200 feet AGL
scattered clouds at 6000 feet AGL
Weather: no significant weather forecast for this period
Text: TEMPO 2318/2323 7000 FEW012 BKN060
Forecast period: 1800 to 2300 UTC 23 January 2019
Forecast type: TEMPORARY: The following changes expected for less than half the time period
Visibility: 4 miles (7 km)
Ceiling: 6000 feet AGL
Clouds: few clouds at 1200 feet AGL
broken clouds at 6000 feet AGL
Weather: no significant weather forecast for this period
Text: BECMG 2401/2404 01010KT FEW012 BKN060
Forecast period: 0100 to 1200 UTC 24 January 2019
Forecast type: BECOMING: Conditions expected to become as follows by 0400 UTC 24 January 2019
Winds: from the N (10 degrees) at 12 MPH (10 knots; 5.1 m/s)
Visibility: 6 or more miles 10+ km)
Ceiling: 6000 feet AGL
Clouds: few clouds at 1200 feet AGL
broken clouds at 6000 feet AGL
Weather: no significant weather forecast for this period